Time;durP1;ratioP1;P1;durP2;ratioP2;P2;SDS_P1;SDS_P2;PMS_P1;PMS_P2;Temp;Humidity;BMP_temperature;BMP_pressure;BME280_temperature;BME280_humidity;BME280_pressure;Samples;Min_cycle;Max_cycle;Signal;HPM_P1;HPM_P2
2021/01/15 00:00:03;;;;;;;5.40;2.88;;;;;;;2.60;56.35;99635.66;5054369;28;20033;-74
2021/01/15 00:02:48;;;;;;;4.78;2.75;;;;;;;2.67;54.58;99631.47;5052963;28;20037;-77
2021/01/15 00:05:13;;;;;;;4.72;2.75;;;;;;;2.51;55.52;99620.63;5051908;28;20053;-76
2021/01/15 00:07:43;;;;;;;4.60;2.80;;;;;;;2.66;55.44;99647.34;5052570;28;20098;-76
2021/01/15 00:10:38;;;;;;;4.57;2.85;;;;;;;2.69;55.04;99647.38;5052845;28;20029;-76
2021/01/15 00:13:09;;;;;;;5.43;3.08;;;;;;;2.62;54.62;99638.16;5053824;28;20029;-76
2021/01/15 00:15:41;;;;;;;5.22;3.00;;;;;;;2.59;55.38;99655.75;5053800;28;20029;-76
2021/01/15 00:18:08;;;;;;;5.18;2.85;;;;;;;2.49;55.68;99651.56;5052560;28;20028;-76
2021/01/15 00:23:47;;;;;;;4.60;2.75;;;;;;;2.56;54.68;99683.31;5053983;28;20029;-75
2021/01/15 00:26:38;;;;;;;5.60;2.80;;;;;;;2.46;55.25;99685.00;5052523;28;20033;-75
2021/01/15 00:29:06;;;;;;;6.20;2.80;;;;;;;2.38;55.36;99689.19;5054367;28;20025;-76
2021/01/15 00:31:46;;;;;;;5.47;2.85;;;;;;;2.24;56.33;99680.81;5053382;28;20420;-75
2021/01/15 00:34:23;;;;;;;5.10;3.30;;;;;;;2.31;55.31;99695.03;5053221;28;20025;-76
2021/01/15 00:37:07;;;;;;;3.53;2.50;;;;;;;2.27;56.34;99695.88;5053295;28;20025;-75
2021/01/15 00:40:00;;;;;;;5.20;3.15;;;;;;;2.26;56.08;99696.69;5053411;28;20029;-76
2021/01/15 00:42:33;;;;;;;5.50;3.15;;;;;;;2.22;55.37;99707.56;5052041;28;20033;-74
2021/01/15 00:45:24;;;;;;;4.22;2.45;;;;;;;2.35;54.33;99710.91;5051974;28;20028;-75
2021/01/15 00:48:05;;;;;;;4.82;2.13;;;;;;;2.29;53.51;99688.34;5052946;28;20031;-76
2021/01/15 00:50:45;;;;;;;5.38;2.25;;;;;;;2.43;52.75;99710.09;5052730;28;20040;-75
2021/01/15 00:53:11;;;;;;;4.95;2.78;;;;;;;2.30;53.51;99710.06;5052856;28;20051;-77
2021/01/15 00:55:49;;;;;;;4.50;2.75;;;;;;;2.40;52.78;99722.63;5052332;28;20033;-76
2021/01/15 00:58:16;;;;;;;7.18;2.90;;;;;;;2.27;52.98;99715.94;5051926;28;20025;-76
2021/01/15 01:01:27;;;;;;;4.22;2.67;;;;;;;2.35;53.14;99754.41;5051761;28;20041;-77
2021/01/15 01:04:27;;;;;;;4.88;2.55;;;;;;;2.33;53.99;99751.06;5051945;28;20033;-77
2021/01/15 01:07:06;;;;;;;5.47;3.05;;;;;;;2.32;53.92;99744.34;5051222;28;20049;-76
2021/01/15 01:09:41;;;;;;;4.22;2.80;;;;;;;2.14;54.15;99731.78;5052773;28;20021;-76
2021/01/15 01:12:08;;;;;;;4.30;2.58;;;;;;;2.22;52.88;99734.31;5051648;28;20121;-76
2021/01/15 01:14:34;;;;;;;4.05;2.80;;;;;;;2.24;53.86;99763.56;5052431;28;20028;-75
2021/01/15 01:17:10;;;;;;;4.22;2.80;;;;;;;2.32;53.83;99766.06;5051483;28;20028;-75
2021/01/15 01:19:50;;;;;;;4.93;2.90;;;;;;;2.21;54.37;99750.19;5051467;28;20437;-76
2021/01/15 01:25:51;;;;;;;5.22;3.20;;;;;;;2.36;55.26;99762.72;5052561;28;20033;-76
2021/01/15 01:28:20;;;;;;;5.75;3.65;;;;;;;2.31;54.59;99756.88;5051025;28;20190;-75
2021/01/15 01:30:52;;;;;;;5.18;3.08;;;;;;;2.36;54.09;99747.69;5051164;28;20033;-76
2021/01/15 01:33:41;;;;;;;5.05;2.97;;;;;;;2.39;54.29;99755.22;5051448;28;20064;-76
2021/01/15 01:36:26;;;;;;;4.90;3.03;;;;;;;2.32;54.06;99753.53;5051231;28;20025;-76
2021/01/15 01:38:54;;;;;;;5.22;3.63;;;;;;;2.34;54.44;99752.72;5052213;28;20033;-76
2021/01/15 01:41:19;;;;;;;4.75;2.80;;;;;;;2.46;53.55;99755.22;5052120;28;20083;-76
2021/01/15 01:43:48;;;;;;;5.68;3.10;;;;;;;2.37;52.40;99737.69;5052490;28;20013;-77
2021/01/15 01:46:15;;;;;;;4.47;3.00;;;;;;;2.39;54.45;99760.25;5056864;28;20017;-77
2021/01/15 01:48:41;;;;;;;5.00;3.17;;;;;;;2.36;54.95;99751.03;5052349;28;20028;-77
2021/01/15 01:51:36;;;;;;;4.10;3.08;;;;;;;2.40;54.84;99750.22;5051009;28;20029;-77
2021/01/15 01:54:03;;;;;;;4.03;2.65;;;;;;;2.25;54.89;99720.13;5053973;28;20091;-77
2021/01/15 01:56:53;;;;;;;4.38;3.25;;;;;;;2.40;55.09;99737.66;5051091;28;20485;-77
2021/01/15 01:59:27;;;;;;;6.00;3.35;;;;;;;2.21;56.34;99720.94;5051175;28;20413;-77
2021/01/15 02:02:11;;;;;;;5.18;3.35;;;;;;;2.30;56.51;99727.63;5052198;28;20029;-76
2021/01/15 02:04:38;;;;;;;4.72;2.70;;;;;;;2.26;56.32;99721.78;5050699;28;20137;-76
2021/01/15 02:07:04;;;;;;;3.42;2.60;;;;;;;2.14;56.55;99713.41;5050328;28;20052;-76
2021/01/15 02:10:19;;;;;;;5.07;3.00;;;;;;;2.27;57.19;99712.59;5051899;28;20029;-75
2021/01/15 02:13:25;;;;;;;8.30;3.90;;;;;;;2.09;58.48;99720.09;5050385;28;20112;-76
2021/01/15 02:16:07;;;;;;;6.05;3.13;;;;;;;2.02;58.80;99715.91;5029769;28;20022;-76
2021/01/15 02:18:47;;;;;;;5.03;3.10;;;;;;;2.02;58.26;99706.69;5048179;28;20033;-76
2021/01/15 02:21:55;;;;;;;4.95;2.78;;;;;;;2.04;58.92;99712.53;5050471;28;20131;-75
2021/01/15 02:24:59;;;;;;;4.43;2.70;;;;;;;2.02;59.06;99708.38;5050833;28;20033;-76
2021/01/15 02:28:02;;;;;;;5.95;3.00;;;;;;;2.07;58.99;99719.25;5050406;28;20619;-75
2021/01/15 02:31:02;;;;;;;4.78;3.17;;;;;;;1.93;59.30;99719.22;5050546;28;20070;-76
2021/01/15 02:33:50;;;;;;;4.97;3.40;;;;;;;2.01;59.00;99717.56;5050997;28;20116;-76
2021/01/15 02:36:33;;;;;;;3.75;2.50;;;;;;;2.11;57.61;99709.22;5055920;28;20025;-75
2021/01/15 02:39:25;;;;;;;4.15;2.60;;;;;;;2.01;58.44;99721.72;5057001;28;20029;-75
2021/01/15 02:41:54;;;;;;;;;;;;;;;2.02;58.96;99714.22;5056264;28;20506;-73
2021/01/15 02:44:22;;;;;;;3.63;2.72;;;;;;;1.82;59.67;99705.00;5054220;28;19916;-74
2021/01/15 02:47:12;;;;;;;4.35;3.05;;;;;;;1.69;58.93;99681.56;5061554;28;20084;-76
2021/01/15 02:49:47;;;;;;;6.13;3.03;;;;;;;1.88;58.79;99712.53;5055995;28;20115;-76
2021/01/15 02:52:18;;;;;;;5.60;2.83;;;;;;;1.82;58.61;99708.34;5053243;28;20123;-75
2021/01/15 02:54:53;;;;;;;5.35;3.22;;;;;;;1.86;59.23;99731.75;5049922;28;20024;-76
2021/01/15 02:57:25;;;;;;;5.28;2.97;;;;;;;1.65;58.46;99705.78;5051364;28;20037;-75
2021/01/15 03:00:14;;;;;;;;;;;;;;;1.85;58.60;99753.44;5050652;28;20029;-76
2021/01/15 03:03:25;;;;;;;6.32;3.05;;;;;;;1.89;58.52;99777.69;5049917;28;19924;-75
2021/01/15 03:06:02;;;;;;;4.50;2.65;;;;;;;1.91;58.54;99771.00;5043986;28;20430;-75
2021/01/15 03:08:29;;;;;;;4.70;3.25;;;;;;;1.98;58.62;99771.88;5050005;28;20033;-74
2021/01/15 03:11:04;;;;;;;4.40;2.58;;;;;;;1.83;58.21;99770.13;5051301;28;20029;-75
2021/01/15 03:13:31;;;;;;;6.32;2.78;;;;;;;1.98;57.80;99791.91;5049812;28;20486;-75
2021/01/15 03:16:00;;;;;;;4.63;3.00;;;;;;;1.85;58.65;99785.16;5054645;28;20049;-74
2021/01/15 03:18:43;;;;;;;3.95;2.67;;;;;;;2.17;56.50;99803.66;5054856;28;20033;-75
2021/01/15 03:21:12;;;;;;;4.63;2.63;;;;;;;2.04;58.02;99784.41;5055080;28;20025;-75
2021/01/15 03:23:51;;;;;;;4.30;2.80;;;;;;;2.00;58.79;99787.75;5054671;28;20091;-75
2021/01/15 03:26:20;;;;;;;5.90;3.50;;;;;;;2.16;58.72;99807.00;5054545;28;20017;-75
2021/01/15 03:29:13;;;;;;;6.65;4.20;;;;;;;2.15;58.97;99810.34;5054904;28;20029;-75
2021/01/15 03:31:53;;;;;;;4.90;3.33;;;;;;;2.20;57.95;99814.53;5053793;28;20076;-75
2021/01/15 03:34:23;;;;;;;3.67;2.60;;;;;;;2.28;57.11;99810.38;5054361;28;20024;-75
2021/01/15 03:36:54;;;;;;;4.15;2.42;;;;;;;2.23;57.36;99798.66;5052987;28;20029;-76
2021/01/15 03:39:54;;;;;;;4.82;2.90;;;;;;;2.34;57.85;99824.59;5054413;28;20036;-75
2021/01/15 03:42:35;;;;;;;7.13;4.10;;;;;;;2.25;56.64;99795.34;5054448;28;20029;-75
2021/01/15 03:45:04;;;;;;;9.13;4.25;;;;;;;2.36;57.97;99831.28;5053073;28;20029;-75
2021/01/15 03:47:36;;;;;;;6.50;3.67;;;;;;;2.22;57.74;99807.03;5054167;28;20060;-75
2021/01/15 03:50:20;;;;;;;4.53;2.53;;;;;;;2.38;56.07;99832.13;5053192;28;20028;-75
2021/01/15 03:52:56;;;;;;;3.92;2.67;;;;;;;2.37;56.47;99840.50;5054351;28;20037;-75
2021/01/15 03:55:57;;;;;;;4.70;2.97;;;;;;;2.37;56.61;99837.16;5053114;28;20032;-76
2021/01/15 03:58:37;;;;;;;4.97;2.88;;;;;;;2.34;56.75;99842.13;5052902;28;20094;-75
2021/01/15 04:01:03;;;;;;;4.20;2.80;;;;;;;2.31;56.91;99844.66;5053684;28;20037;-75
2021/01/15 04:03:29;;;;;;;4.50;2.78;;;;;;;2.37;56.34;99843.00;5052909;28;20395;-74
2021/01/15 04:05:55;;;;;;;7.90;4.68;;;;;;;2.27;57.40;99825.41;5052167;28;20064;-74
2021/01/15 04:08:59;;;;;;;9.07;5.32;;;;;;;2.37;56.47;99845.50;5053560;28;20036;-75
2021/01/15 04:11:34;;;;;;;8.73;5.07;;;;;;;2.24;56.71;99845.47;5052480;28;20490;-75
2021/01/15 04:14:00;;;;;;;4.97;2.92;;;;;;;2.28;56.77;99835.44;5053983;28;20501;-74
2021/01/15 04:16:29;;;;;;;6.82;3.03;;;;;;;2.29;56.27;99833.78;5052949;28;20502;-74
2021/01/15 04:19:21;;;;;;;5.70;3.45;;;;;;;2.28;57.57;99847.13;5053588;28;20569;-75
2021/01/15 04:21:46;;;;;;;;;;;;;;;2.30;56.26;99856.34;5053947;28;20554;-76
2021/01/15 04:24:13;;;;;;;6.80;4.53;;;;;;;2.21;57.96;99853.81;5051490;28;19978;-75
2021/01/15 04:26:42;;;;;;;5.90;3.88;;;;;;;2.05;58.27;99853.75;5051760;28;20025;-75
2021/01/15 04:29:16;;;;;;;5.22;3.40;;;;;;;2.17;56.55;99838.75;5052292;28;20068;-75
2021/01/15 04:31:42;;;;;;;5.25;2.80;;;;;;;2.35;55.58;99858.88;5053576;28;20029;-75
2021/01/15 04:34:07;;;;;;;5.05;3.28;;;;;;;2.19;57.30;99844.59;5051544;28;20478;-74
2021/01/15 04:36:35;;;;;;;6.38;3.70;;;;;;;2.34;57.58;99845.50;5050260;28;20487;-74
2021/01/15 04:39:01;;;;;;;6.95;3.80;;;;;;;2.28;56.31;99837.09;5051497;28;20025;-76
2021/01/15 04:41:28;;;;;;;5.60;3.28;;;;;;;2.04;56.98;99806.97;5051972;28;20142;-73
2021/01/15 04:43:55;;;;;;;4.57;3.00;;;;;;;2.13;57.10;99842.94;5050247;28;20051;-75
2021/01/15 04:46:22;;;;;;;4.63;3.60;;;;;;;2.15;57.11;99851.28;5050658;28;20461;-74
2021/01/15 04:48:52;;;;;;;5.88;3.40;;;;;;;1.97;57.65;99835.34;5049489;28;20025;-74
2021/01/15 04:51:25;;;;;;;4.32;2.83;;;;;;;2.16;57.56;99860.47;5049981;28;20391;-75
2021/01/15 04:53:57;;;;;;;4.32;3.10;;;;;;;2.11;57.33;99859.63;5050544;28;20021;-75
2021/01/15 04:56:39;;;;;;;5.65;3.42;;;;;;;1.93;57.27;99844.50;5051522;28;20028;-74
2021/01/15 04:59:07;;;;;;;6.13;3.72;;;;;;;2.08;57.22;99883.84;5052019;28;20032;-77
2021/01/15 05:01:41;;;;;;;6.70;4.18;;;;;;;1.96;58.05;99873.78;5051186;28;20036;-76
2021/01/15 05:04:08;;;;;;;8.05;4.50;;;;;;;2.08;57.85;99904.72;5050504;28;20549;-75
2021/01/15 05:06:46;;;;;;;5.85;3.63;;;;;;;2.12;56.80;99921.44;5051813;28;20123;-74
2021/01/15 05:09:13;;;;;;;6.53;3.95;;;;;;;2.04;57.50;99919.75;5052177;28;20033;-77
2021/01/15 05:11:39;;;;;;;7.13;4.00;;;;;;;1.78;58.28;99882.03;5050679;28;20096;-74
2021/01/15 05:14:09;;;;;;;6.65;4.47;;;;;;;2.00;57.72;99898.03;5050934;28;20036;-77
2021/01/15 05:16:37;;;;;;;9.73;5.50;;;;;;;1.83;59.70;99910.44;5051151;28;20041;-76
2021/01/15 05:19:03;;;;;;;6.93;4.13;;;;;;;1.86;59.11;99923.00;5044453;28;20028;-75
2021/01/15 05:21:29;;;;;;;10.55;4.38;;;;;;;1.76;59.49;99913.75;5038272;28;20029;-74
2021/01/15 05:23:55;;;;;;;6.95;4.53;;;;;;;1.70;59.67;99901.19;5041526;28;20025;-75
2021/01/15 05:26:23;;;;;;;9.52;4.43;;;;;;;1.76;59.63;99896.22;5051199;28;20021;-73
2021/01/15 05:28:49;;;;;;;8.25;4.60;;;;;;;1.80;60.46;99912.09;5050483;28;20457;-74
2021/01/15 05:31:15;;;;;;;7.22;4.53;;;;;;;1.77;60.52;99906.25;5037922;28;20084;-75
2021/01/15 05:33:40;;;;;;;7.18;4.78;;;;;;;1.66;60.78;99904.50;5045805;28;20029;-74
2021/01/15 05:36:06;;;;;;;4.95;3.42;;;;;;;1.65;59.88;99878.59;5029991;28;20014;-76
2021/01/15 05:38:31;;;;;;;7.50;4.55;;;;;;;1.80;60.38;99927.97;5039657;28;20450;-78
2021/01/15 05:40:59;;;;;;;7.00;4.65;;;;;;;1.62;61.07;99922.84;5061857;28;20033;-77
2021/01/15 05:43:30;;;;;;;6.07;4.15;;;;;;;1.81;60.33;99938.81;5051174;28;20020;-81
2021/01/15 05:46:14;;;;;;;8.40;5.32;;;;;;;1.82;61.62;99958.91;5053488;28;20029;-76
2021/01/15 05:48:48;;;;;;;7.32;4.65;;;;;;;1.78;60.93;99939.66;5038782;28;20045;-81
2021/01/15 05:51:27;;;;;;;7.22;4.65;;;;;;;2.29;58.60;99969.19;5034918;28;20065;-78
2021/01/15 05:53:53;;;;;;;9.10;5.70;;;;;;;2.07;59.03;99969.88;5035919;28;20025;-77
2021/01/15 05:56:20;;;;;;;13.35;7.78;;;;;;;1.90;60.16;99961.44;5034153;28;20122;-78
2021/01/15 05:59:12;;;;;;;19.63;7.60;;;;;;;1.98;61.27;99983.19;5031239;28;20029;-78
2021/01/15 06:01:42;;;;;;;17.90;9.55;;;;;;;2.02;60.83;99967.34;5032196;28;20481;-77
2021/01/15 06:04:13;;;;;;;25.50;12.05;;;;;;;1.95;59.55;99953.13;5031502;28;20040;-77
2021/01/15 06:06:39;;;;;;;7.83;4.97;;;;;;;2.09;58.07;99955.69;5039243;28;20125;-77
2021/01/15 06:09:07;;;;;;;14.30;8.48;;;;;;;2.02;59.21;99939.78;5030739;28;20034;-77
2021/01/15 06:11:34;;;;;;;11.48;7.75;;;;;;;2.21;58.88;99975.81;5030639;28;20029;-77
2021/01/15 06:14:00;;;;;;;13.48;7.97;;;;;;;2.09;59.09;99968.22;5032009;28;20029;-77
2021/01/15 06:16:26;;;;;;;11.45;6.78;;;;;;;2.17;59.62;99992.53;5031928;28;20037;-77
2021/01/15 06:18:58;;;;;;;8.95;6.13;;;;;;;2.37;59.36;100000.16;5031873;28;20034;-76
2021/01/15 06:21:34;;;;;;;13.68;7.82;;;;;;;2.33;59.14;99980.91;5030569;28;20042;-77
2021/01/15 06:24:10;;;;;;;16.95;8.40;;;;;;;2.96;57.48;100010.41;5030552;28;20033;-77
2021/01/15 06:26:39;;;;;;;12.18;7.70;;;;;;;3.28;56.57;100009.66;5030378;28;20487;-77
2021/01/15 06:29:08;;;;;;;12.50;7.85;;;;;;;4.31;55.55;100007.97;5030460;28;20034;-77
2021/01/15 06:31:45;;;;;;;17.67;10.60;;;;;;;4.25;55.18;100009.63;5030478;28;20557;-78
2021/01/15 06:34:13;;;;;;;27.13;16.48;;;;;;;3.75;56.70;100007.19;5031454;28;20084;-78
2021/01/15 06:37:09;;;;;;;23.50;14.95;;;;;;;4.17;54.59;100021.41;5031752;28;20048;-78
2021/01/15 06:39:34;;;;;;;10.07;5.93;;;;;;;4.17;51.68;99997.09;5023496;28;20045;-78
2021/01/15 06:42:01;;;;;;;11.38;7.40;;;;;;;4.03;51.64;100011.34;5031413;28;20033;-79
2021/01/15 06:44:27;;;;;;;11.45;7.38;;;;;;;4.06;52.88;100013.03;5030553;28;20025;-79
2021/01/15 06:46:54;;;;;;;9.70;6.15;;;;;;;3.51;53.21;100005.50;5030630;28;20410;-77
2021/01/15 06:49:33;;;;;;;8.40;5.20;;;;;;;4.26;51.61;100033.94;5032760;28;20040;-77
2021/01/15 06:51:59;;;;;;;12.88;7.05;;;;;;;5.00;49.49;100042.09;5035335;28;20554;-77
2021/01/15 06:54:35;;;;;;;10.23;6.93;;;;;;;5.47;48.17;100056.13;5034354;28;20026;-76
2021/01/15 06:57:15;;;;;;;10.70;7.53;;;;;;;5.81;47.41;100067.66;5035324;28;20032;-76
2021/01/15 06:59:50;;;;;;;10.65;6.43;;;;;;;5.53;47.92;100071.19;5034237;28;20042;-75
2021/01/15 07:02:59;;;;;;;10.75;6.32;;;;;;;5.93;48.58;100068.44;5035181;28;20125;-77
2021/01/15 07:05:31;;;;;;;10.48;7.32;;;;;;;5.40;47.71;100049.44;4999751;28;20545;-77
2021/01/15 07:08:00;;;;;;;9.02;6.07;;;;;;;6.00;46.49;100059.13;5034930;28;20112;-77
2021/01/15 07:10:25;;;;;;;9.43;6.00;;;;;;;3.15;53.55;100039.78;5035154;28;20037;-78
2021/01/15 07:12:55;;;;;;;11.00;7.68;;;;;;;3.80;53.07;100065.84;5034930;28;20033;-78
2021/01/15 07:15:22;;;;;;;10.35;7.47;;;;;;;3.48;55.71;100077.53;5035009;28;20495;-76
2021/01/15 07:17:48;;;;;;;12.93;8.00;;;;;;;4.74;50.64;100081.66;5033419;28;20036;-77
2021/01/15 07:20:17;;;;;;;15.13;8.75;;;;;;;3.96;52.50;100082.59;5034571;28;20545;-78
2021/01/15 07:22:59;;;;;;;17.98;10.30;;;;;;;3.18;54.81;100079.97;5033740;28;20045;-79
2021/01/15 07:25:25;;;;;;;13.48;8.95;;;;;;;3.13;54.86;100066.56;5034111;28;20491;-78
2021/01/15 07:27:51;;;;;;;11.18;7.28;;;;;;;2.77;55.45;100071.44;5034776;28;20033;-78
2021/01/15 07:30:30;;;;;;;10.15;6.13;;;;;;;2.71;56.11;100078.94;5033844;28;20034;-79
2021/01/15 07:32:57;;;;;;;10.45;6.28;;;;;;;2.45;57.31;100062.06;5050105;28;20087;-78
2021/01/15 07:35:26;;;;;;;12.10;7.40;;;;;;;2.74;57.78;100094.84;5033628;28;20099;-77
2021/01/15 07:38:07;;;;;;;10.10;6.43;;;;;;;2.79;57.08;100103.25;5034658;28;20029;-78
2021/01/15 07:40:37;;;;;;;13.15;7.43;;;;;;;3.18;55.91;100087.50;5033173;28;20041;-75
2021/01/15 07:43:03;;;;;;;11.32;7.95;;;;;;;2.99;55.37;100071.50;5033250;28;20033;-76
2021/01/15 07:45:31;;;;;;;15.10;9.25;;;;;;;3.49;54.65;100101.81;5034585;28;20029;-76
2021/01/15 07:48:01;;;;;;;8.32;5.28;;;;;;;3.31;54.95;100096.72;5034346;28;20025;-76
2021/01/15 07:50:32;;;;;;;12.15;8.13;;;;;;;3.37;55.23;100077.50;5034410;28;20033;-77
2021/01/15 07:53:12;;;;;;;9.63;5.50;;;;;;;3.34;54.76;100084.19;5033188;28;20036;-76
2021/01/15 07:55:51;;;;;;;7.60;5.47;;;;;;;3.58;54.98;100093.47;5033195;28;20029;-75
2021/01/15 07:58:25;;;;;;;8.32;5.35;;;;;;;3.25;55.46;100071.59;5033950;28;20076;-75
2021/01/15 08:00:52;;;;;;;8.57;5.32;;;;;;;3.11;54.52;100048.16;5031615;28;20034;-75
2021/01/15 08:03:18;;;;;;;8.10;4.35;;;;;;;3.26;54.25;100086.69;5032931;28;20052;-75
2021/01/15 08:05:45;;;;;;;8.68;4.80;;;;;;;3.40;54.08;100085.06;5033627;28;20021;-75
2021/01/15 08:08:16;;;;;;;8.20;5.20;;;;;;;3.39;54.79;100088.38;5032826;28;20067;-75
2021/01/15 08:10:48;;;;;;;8.52;5.15;;;;;;;3.36;54.03;100103.47;5032752;28;20030;-75
2021/01/15 08:13:20;;;;;;;9.23;5.13;;;;;;;3.43;54.47;100105.16;5033836;28;20026;-76
2021/01/15 08:15:46;;;;;;;11.07;6.97;;;;;;;3.49;54.10;100079.19;5033387;28;20026;-76
2021/01/15 08:18:13;;;;;;;13.30;8.23;;;;;;;3.71;54.48;100107.72;5034942;28;20030;-76
2021/01/15 08:20:39;;;;;;;11.18;6.85;;;;;;;3.64;53.69;100129.50;5033439;28;20056;-76
2021/01/15 08:23:04;;;;;;;7.72;5.32;;;;;;;3.40;55.02;100117.72;5032450;28;20428;-74
2021/01/15 08:25:30;;;;;;;13.68;8.65;;;;;;;3.90;53.86;100130.34;5032503;28;20479;-76
2021/01/15 08:27:57;;;;;;;8.73;5.45;;;;;;;3.51;52.77;100133.66;5032526;28;20025;-76
2021/01/15 08:30:23;;;;;;;19.48;10.93;;;;;;;3.61;53.72;100159.63;5032738;28;20033;-79
2021/01/15 08:32:49;;;;;;;9.82;6.53;;;;;;;3.63;53.78;100157.13;5032470;28;20048;-77
2021/01/15 08:35:26;;;;;;;6.70;4.70;;;;;;;3.32;54.22;100128.56;5032484;28;20029;-78
2021/01/15 08:37:57;;;;;;;8.00;5.70;;;;;;;3.57;53.98;100152.06;5032677;28;20025;-77
2021/01/15 08:40:38;;;;;;;8.80;5.72;;;;;;;3.38;52.97;100129.44;5032708;28;20021;-77
2021/01/15 08:43:04;;;;;;;9.30;6.20;;;;;;;3.72;53.63;100174.75;5033709;28;20033;-77
2021/01/15 08:45:32;;;;;;;9.65;6.00;;;;;;;3.60;52.94;100159.63;5032236;28;20056;-79
2021/01/15 08:48:00;;;;;;;9.32;6.40;;;;;;;3.73;52.76;100177.28;5032198;28;20017;-78
2021/01/15 08:50:26;;;;;;;35.92;18.05;;;;;;;3.73;52.63;100172.25;5032009;28;20185;-78
2021/01/15 08:52:51;;;;;;;12.50;8.90;;;;;;;3.90;52.12;100193.22;5032279;28;20093;-78
2021/01/15 08:55:20;;;;;;;9.05;6.00;;;;;;;3.87;52.73;100208.31;5032077;28;20061;-78
2021/01/15 08:57:49;;;;;;;7.88;5.32;;;;;;;4.17;51.30;100210.91;5033242;28;20105;-79
2021/01/15 09:00:18;;;;;;;7.63;5.70;;;;;;;3.59;51.17;100175.53;5039691;28;20060;-78
2021/01/15 09:02:46;;;;;;;8.27;5.68;;;;;;;4.08;51.75;100215.91;5034944;28;20030;-77
2021/01/15 09:05:19;;;;;;;8.05;6.15;;;;;;;3.77;52.09;100163.88;5035634;28;20026;-81
2021/01/15 09:07:47;;;;;;;10.25;6.32;;;;;;;4.10;51.46;100190.75;5037398;28;20033;-78
2021/01/15 09:10:15;;;;;;;10.43;7.53;;;;;;;4.03;51.57;100205.00;5039436;28;20036;-78
2021/01/15 09:12:43;;;;;;;11.73;7.45;;;;;;;4.08;50.74;100184.91;5041259;28;20022;-78
2021/01/15 09:15:19;;;;;;;9.55;6.13;;;;;;;4.13;50.70;100193.28;5038437;28;20123;-77
2021/01/15 09:17:46;;;;;;;12.70;6.40;;;;;;;4.29;51.09;100198.34;5037882;28;20026;-77
2021/01/15 09:20:12;;;;;;;8.65;5.40;;;;;;;4.11;50.73;100205.84;5034539;28;20026;-78
2021/01/15 09:22:37;;;;;;;9.13;5.82;;;;;;;4.32;51.56;100175.66;5032231;28;20025;-77
2021/01/15 09:25:03;;;;;;;8.68;5.53;;;;;;;4.29;50.63;100177.34;5032883;28;20028;-77
2021/01/15 09:27:30;;;;;;;9.43;6.13;;;;;;;4.40;50.81;100166.44;5031713;28;20124;-77
2021/01/15 09:29:55;;;;;;;6.72;5.15;;;;;;;4.41;51.57;100159.75;5031420;28;20030;-78
2021/01/15 09:32:21;;;;;;;8.60;4.90;;;;;;;4.24;50.95;100158.88;5032429;28;20041;-78
2021/01/15 09:34:46;;;;;;;9.02;5.38;;;;;;;4.46;49.38;100159.75;5036437;28;20525;-78
2021/01/15 09:37:12;;;;;;;8.70;5.13;;;;;;;4.62;50.98;100171.47;5036138;28;20034;-77
2021/01/15 09:39:38;;;;;;;10.48;6.70;;;;;;;4.87;51.32;100168.09;5031199;28;20048;-77
2021/01/15 09:42:03;;;;;;;9.63;6.78;;;;;;;4.79;51.21;100168.09;5032071;28;20510;-77
2021/01/15 09:44:30;;;;;;;8.18;5.20;;;;;;;4.57;50.53;100175.66;5032136;28;20052;-77
2021/01/15 09:47:01;;;;;;;9.20;4.60;;;;;;;4.64;50.02;100170.63;5031275;28;20033;-77
2021/01/15 09:49:27;;;;;;;5.85;3.92;;;;;;;4.69;50.55;100179.03;5032533;28;20079;-77
2021/01/15 09:51:53;;;;;;;5.95;4.38;;;;;;;4.75;49.61;100163.91;5030809;28;20033;-77
2021/01/15 09:54:18;;;;;;;5.72;4.25;;;;;;;4.92;50.01;100151.28;5032182;28;20033;-77
2021/01/15 09:56:44;;;;;;;9.27;4.63;;;;;;;4.76;50.15;100127.81;5031938;28;20033;-77
2021/01/15 09:59:12;;;;;;;6.53;4.72;;;;;;;4.91;50.09;100165.53;5031243;28;20549;-76
2021/01/15 10:01:38;;;;;;;10.18;5.10;;;;;;;5.00;50.70;100142.84;5031829;28;20095;-77
2021/01/15 10:04:04;;;;;;;7.00;4.90;;;;;;;4.90;49.58;100158.00;5030822;28;20029;-77
2021/01/15 10:06:31;;;;;;;9.55;5.53;;;;;;;5.12;48.78;100137.78;5030530;28;20048;-77
2021/01/15 10:08:59;;;;;;;7.82;4.88;;;;;;;5.30;48.70;100149.47;5030854;28;20017;-79
2021/01/15 10:11:38;;;;;;;10.02;5.88;;;;;;;5.38;49.00;100122.56;5030819;28;20030;-80
2021/01/15 10:14:16;;;;;;;8.85;5.95;;;;;;;5.53;48.96;100135.06;5031137;28;20112;-79
2021/01/15 10:17:09;;;;;;;8.23;5.60;;;;;;;5.59;48.39;100141.75;5031046;28;20021;-84
2021/01/15 10:19:37;;;;;;;8.38;5.57;;;;;;;5.63;47.36;100138.38;5032197;28;20072;-84
2021/01/15 10:26:12;;;;;;;6.57;4.50;;;;;;;5.84;48.07;100123.97;5032264;28;20120;-84
2021/01/15 10:28:39;;;;;;;5.88;4.53;;;;;;;5.95;48.05;100122.22;5041637;28;20040;-80
2021/01/15 10:31:19;;;;;;;7.10;4.68;;;;;;;5.64;46.74;100089.63;5038600;28;20068;-78
2021/01/15 10:33:54;;;;;;;7.70;5.13;;;;;;;5.84;48.26;100128.22;5032035;28;20025;-79
2021/01/15 10:36:21;;;;;;;8.07;5.00;;;;;;;5.72;48.43;100105.56;5030629;28;20038;-79
2021/01/15 10:38:49;;;;;;;7.93;4.38;;;;;;;6.12;49.08;100119.56;5030627;28;20548;-80
2021/01/15 10:41:40;;;;;;;7.68;5.00;;;;;;;6.27;48.97;100116.94;5030424;28;20033;-80
2021/01/15 10:44:09;;;;;;;5.13;3.53;;;;;;;6.20;47.53;100119.53;5032020;28;20121;-80
2021/01/15 10:46:45;;;;;;;10.73;6.32;;;;;;;5.75;47.95;100111.41;5031526;28;20033;-77
2021/01/15 10:49:31;;;;;;;16.70;7.78;;;;;;;5.88;46.46;100109.69;5030334;28;20057;-77
2021/01/15 10:52:12;;;;;;;8.55;5.38;;;;;;;5.87;46.64;100090.34;5031576;28;20087;-76
2021/01/15 10:54:42;;;;;;;6.40;4.97;;;;;;;5.97;46.37;100102.03;5034329;28;20029;-77
2021/01/15 11:00:29;;;;;;;7.25;4.25;;;;;;;5.95;46.15;100102.06;5031959;28;20640;-77
2021/01/15 11:02:55;;;;;;;7.35;5.47;;;;;;;5.96;46.30;100108.75;5030373;28;20049;-77
2021/01/15 11:05:48;;;;;;;17.92;10.30;;;;;;;6.28;46.47;100105.97;5031403;28;20030;-77
2021/01/15 11:08:39;;;;;;;15.98;9.32;;;;;;;5.96;44.42;100098.66;5030829;28;20045;-75
2021/01/15 11:11:06;;;;;;;5.20;3.60;;;;;;;6.03;43.15;100089.38;5030258;28;20033;-75
2021/01/15 11:13:40;;;;;;;10.43;6.35;;;;;;;6.10;44.00;100081.72;5030079;28;20025;-76
2021/01/15 11:19:27;;;;;;;8.10;5.78;;;;;;;6.32;42.73;100097.53;5031379;28;20048;-76
2021/01/15 11:22:35;;;;;;;11.65;7.45;;;;;;;6.67;43.41;100104.78;5029848;28;20030;-76
2021/01/15 11:25:19;;;;;;;16.67;10.65;;;;;;;6.58;42.34;100075.41;5030966;28;20041;-76
2021/01/15 11:27:45;;;;;;;8.18;4.75;;;;;;;6.26;42.03;100090.00;5029889;28;20551;-77
2021/01/15 11:33:32;;;;;;;14.10;9.35;;;;;;;6.72;42.41;100076.09;5031503;28;20072;-77
2021/01/15 11:36:01;;;;;;;16.85;12.50;;;;;;;6.56;42.99;100092.25;5033591;28;20022;-77
2021/01/15 11:38:41;;;;;;;7.68;5.15;;;;;;;6.46;43.33;100077.19;5039787;28;20029;-78
2021/01/15 11:41:07;;;;;;;9.48;5.80;;;;;;;6.45;41.53;100096.56;5045817;28;20033;-77
2021/01/15 11:43:38;;;;;;;7.20;4.45;;;;;;;6.18;42.18;100076.63;5042273;28;20029;-78
2021/01/15 11:46:06;;;;;;;8.60;5.10;;;;;;;6.64;41.46;100074.50;5040032;28;20112;-75
2021/01/15 11:48:58;;;;;;;6.47;4.07;;;;;;;6.79;40.79;100094.53;5040899;28;20026;-76
2021/01/15 11:51:27;;;;;;;11.75;6.43;;;;;;;6.88;41.20;100080.13;5041002;28;20057;-77
2021/01/15 11:54:01;;;;;;;5.80;4.07;;;;;;;6.39;42.23;100078.97;5035921;28;20076;-76
2021/01/15 11:56:35;;;;;;;7.40;5.28;;;;;;;6.69;43.11;100088.75;5041005;28;20104;-76
2021/01/15 11:59:15;;;;;;;11.45;6.40;;;;;;;6.65;41.87;100077.03;5034866;28;20021;-76
2021/01/15 12:01:53;;;;;;;7.90;5.35;;;;;;;6.51;42.33;100073.78;5033175;28;20041;-77
2021/01/15 12:04:31;;;;;;;11.07;6.70;;;;;;;6.55;42.30;100100.69;5033240;28;20502;-77
2021/01/15 12:06:57;;;;;;;8.95;6.60;;;;;;;6.80;42.02;100098.72;5032668;28;20050;-77
2021/01/15 12:09:31;;;;;;;5.95;4.55;;;;;;;6.61;42.50;100089.69;5033221;28;20108;-77
2021/01/15 12:15:18;;;;;;;6.82;5.20;;;;;;;6.68;41.81;100079.50;5035816;28;20128;-76
2021/01/15 12:18:39;;;;;;;11.55;6.57;;;;;;;7.10;40.37;100087.44;5034480;28;20030;-77
2021/01/15 12:21:36;;;;;;;9.38;5.97;;;;;;;6.79;41.01;100085.25;5032687;28;20471;-77
2021/01/15 12:24:33;;;;;;;8.48;5.18;;;;;;;6.76;42.08;100086.97;5032775;28;20040;-77
2021/01/15 12:27:54;;;;;;;9.45;6.15;;;;;;;7.18;41.53;100080.59;5032725;28;20156;-77
2021/01/15 12:30:23;;;;;;;6.15;4.90;;;;;;;6.67;41.41;100046.69;5033976;28;20044;-77
2021/01/15 12:32:52;;;;;;;10.75;6.75;;;;;;;6.94;40.30;100084.25;5032555;28;20030;-77